Time;durP1;ratioP1;P1;durP2;ratioP2;P2;SDS_P1;SDS_P2;PMS_P1;PMS_P2;Temp;Humidity;BMP_temperature;BMP_pressure;BME280_temperature;BME280_humidity;BME280_pressure;Samples;Min_cycle;Max_cycle;Signal;HPM_P1;HPM_P2
2022/08/07 00:00:26;;;;;;;7.63;6.63;;;;;;;23.88;47.56;95189.00;5045765;28;20435;-77
2022/08/07 00:02:54;;;;;;;8.57;6.65;;;;;;;23.86;47.91;95188.47;5046285;28;20029;-76
2022/08/07 00:05:20;;;;;;;10.80;7.05;;;;;;;23.89;47.89;95180.53;5045840;28;20021;-77
2022/08/07 00:07:46;;;;;;;13.75;7.05;;;;;;;23.81;47.73;95184.59;5045669;28;20163;-75
2022/08/07 00:10:11;;;;;;;8.13;6.97;;;;;;;23.74;48.10;95178.56;5045694;28;20021;-76
2022/08/07 00:12:37;;;;;;;9.32;6.75;;;;;;;23.78;47.99;95182.41;5045756;28;20415;-75
2022/08/07 00:15:02;;;;;;;8.10;6.40;;;;;;;23.78;47.54;95179.66;5046079;28;20017;-76
2022/08/07 00:17:28;;;;;;;7.93;6.20;;;;;;;23.75;47.79;95179.38;5045346;28;20021;-76
2022/08/07 00:19:53;;;;;;;10.43;6.32;;;;;;;23.70;47.84;95191.13;5046163;28;20033;-75
2022/08/07 00:22:19;;;;;;;11.40;6.75;;;;;;;23.60;48.43;95182.88;5045383;28;20053;-76
2022/08/07 00:24:44;;;;;;;11.73;7.18;;;;;;;23.65;48.57;95180.97;5045839;28;20032;-75
2022/08/07 00:27:09;;;;;;;7.95;5.88;;;;;;;23.64;48.99;95189.47;5045168;28;20036;-76
2022/08/07 00:29:35;;;;;;;10.00;6.63;;;;;;;23.61;48.79;95185.34;5045761;28;20039;-76
2022/08/07 00:32:02;;;;;;;7.28;6.20;;;;;;;23.55;48.13;95189.97;5045545;28;20400;-75
2022/08/07 00:34:27;;;;;;;8.98;5.90;;;;;;;23.54;47.97;95196.53;5045594;28;20027;-75
2022/08/07 00:36:53;;;;;;;8.18;5.82;;;;;;;23.57;48.13;95204.22;5045807;28;20017;-75
2022/08/07 00:39:19;;;;;;;8.15;6.10;;;;;;;23.62;48.55;95199.88;5045501;28;20049;-76
2022/08/07 00:42:02;;;;;;;7.03;6.32;;;;;;;23.46;48.38;95195.13;5045532;28;20451;-76
2022/08/07 00:44:28;;;;;;;10.27;7.28;;;;;;;23.56;49.13;95194.38;5045374;28;20033;-76
2022/08/07 00:46:54;;;;;;;9.25;6.82;;;;;;;23.48;49.12;95199.50;5045474;28;20511;-76
2022/08/07 00:49:19;;;;;;;11.60;6.93;;;;;;;23.33;49.29;95193.66;5046061;28;20021;-76
2022/08/07 00:51:45;;;;;;;8.60;7.22;;;;;;;23.35;49.21;95201.59;5045252;28;20411;-76
2022/08/07 00:54:11;;;;;;;10.45;6.85;;;;;;;23.38;49.44;95194.75;5045920;28;20029;-76
2022/08/07 00:56:36;;;;;;;9.45;6.43;;;;;;;23.43;49.58;95197.56;5045391;28;20374;-77
2022/08/07 00:59:02;;;;;;;9.18;6.63;;;;;;;23.45;49.45;95195.41;5045295;28;20029;-76
2022/08/07 01:01:30;;;;;;;8.75;6.75;;;;;;;23.51;49.56;95197.06;5045418;28;20117;-76
2022/08/07 01:03:55;;;;;;;8.80;6.47;;;;;;;23.50;49.21;95187.22;5043865;28;20029;-76
2022/08/07 01:06:21;;;;;;;6.85;6.15;;;;;;;23.47;48.60;95195.97;5045202;28;20044;-76
2022/08/07 01:08:46;;;;;;;7.05;6.10;;;;;;;23.41;48.84;95191.53;5045495;28;20045;-75
2022/08/07 01:11:12;;;;;;;7.78;6.22;;;;;;;23.40;48.93;95200.84;5027806;28;20060;-76
2022/08/07 01:13:38;;;;;;;8.63;6.80;;;;;;;23.27;49.25;95200.19;5045541;28;20411;-77
2022/08/07 01:16:04;;;;;;;8.07;6.40;;;;;;;23.27;49.01;95205.66;5044542;28;20045;-76
2022/08/07 01:18:30;;;;;;;7.55;6.03;;;;;;;23.12;49.46;95203.63;5044250;28;20408;-76
2022/08/07 01:21:08;;;;;;;10.02;7.20;;;;;;;23.10;49.39;95205.81;5045766;28;20495;-76
2022/08/07 01:23:33;;;;;;;8.15;6.55;;;;;;;23.11;49.65;95217.56;5045217;28;20025;-77
2022/08/07 01:25:59;;;;;;;8.35;6.80;;;;;;;23.16;49.85;95212.16;5044109;28;20082;-76
2022/08/07 01:28:24;;;;;;;7.63;6.65;;;;;;;23.17;49.37;95211.03;5045352;28;20147;-77
2022/08/07 01:30:50;;;;;;;8.07;6.35;;;;;;;23.21;49.55;95209.44;5046672;28;20036;-76
2022/08/07 01:33:15;;;;;;;7.43;6.38;;;;;;;23.19;49.46;95211.63;5031581;28;20763;-76
2022/08/07 01:35:41;;;;;;;7.90;6.78;;;;;;;23.11;49.52;95212.94;5047520;28;20441;-75
2022/08/07 01:38:06;;;;;;;8.23;6.78;;;;;;;23.07;49.70;95220.84;5047570;28;20454;-75
2022/08/07 01:40:32;;;;;;;7.25;6.50;;;;;;;23.05;50.22;95227.66;5047338;28;20043;-76
2022/08/07 01:42:57;;;;;;;9.02;7.18;;;;;;;22.97;50.52;95226.25;5047592;28;20098;-75
2022/08/07 01:45:23;;;;;;;8.80;7.00;;;;;;;22.95;50.58;95231.13;5030316;28;20021;-75
2022/08/07 01:47:48;;;;;;;8.35;7.18;;;;;;;22.92;50.44;95248.06;5030761;28;20021;-75
2022/08/07 01:50:15;;;;;;;9.20;6.60;;;;;;;22.89;50.41;95263.06;5048386;28;20578;-78
2022/08/07 01:52:40;;;;;;;7.47;6.65;;;;;;;22.83;50.38;95262.22;5048716;28;20025;-78
2022/08/07 01:55:07;;;;;;;8.45;7.15;;;;;;;22.90;50.37;95274.84;5030556;28;20021;-77
2022/08/07 01:57:33;;;;;;;9.02;7.10;;;;;;;22.83;50.77;95286.81;5046602;28;20456;-77
2022/08/07 02:00:07;;;;;;;8.82;7.53;;;;;;;22.83;51.48;95303.22;5048201;28;20025;-77
2022/08/07 02:02:37;;;;;;;8.07;7.10;;;;;;;22.74;51.60;95287.53;5047980;28;20304;-77
2022/08/07 02:05:12;;;;;;;6.90;6.20;;;;;;;22.60;51.81;95287.97;5047062;28;20021;-76
2022/08/07 02:07:40;;;;;;;7.13;6.40;;;;;;;22.53;52.39;95306.44;5047019;28;20052;-76
2022/08/07 02:10:05;;;;;;;6.93;6.22;;;;;;;22.45;52.96;95314.00;5030102;28;20048;-76
2022/08/07 02:12:33;;;;;;;10.98;8.13;;;;;;;22.34;54.90;95306.78;5048461;28;20111;-76
2022/08/07 02:14:59;;;;;;;12.20;7.55;;;;;;;22.30;56.42;95300.16;5046028;28;20036;-75
2022/08/07 02:17:25;;;;;;;9.10;7.43;;;;;;;22.34;55.96;95285.72;5048088;28;20083;-75
2022/08/07 02:19:50;;;;;;;9.43;7.22;;;;;;;22.37;56.41;95273.47;5047476;28;20103;-76
2022/08/07 02:22:18;;;;;;;9.43;6.78;;;;;;;22.47;56.60;95262.66;5046503;28;20033;-75
2022/08/07 02:24:44;;;;;;;10.00;7.30;;;;;;;22.55;56.96;95252.34;5030378;28;20021;-76
2022/08/07 02:27:11;;;;;;;7.90;7.10;;;;;;;22.43;57.37;95244.28;5047368;28;20064;-76
2022/08/07 02:29:36;;;;;;;8.40;7.50;;;;;;;22.33;59.18;95229.44;5047955;28;20047;-76
2022/08/07 02:32:02;;;;;;;8.50;7.05;;;;;;;22.13;61.13;95221.03;5029957;28;20411;-76
2022/08/07 02:34:27;;;;;;;8.40;7.50;;;;;;;21.98;62.40;95222.50;5046117;28;20041;-76
2022/08/07 02:36:54;;;;;;;8.77;7.63;;;;;;;21.85;62.71;95221.81;5045987;28;20550;-74
2022/08/07 02:39:19;;;;;;;8.25;7.47;;;;;;;21.78;63.92;95223.91;5029771;28;20407;-76
2022/08/07 02:41:45;;;;;;;9.82;7.50;;;;;;;21.72;63.44;95247.56;5045800;28;20037;-75
2022/08/07 02:44:10;;;;;;;7.93;7.13;;;;;;;21.79;63.72;95258.31;5046188;28;20040;-76
2022/08/07 02:46:36;;;;;;;9.63;7.47;;;;;;;21.93;64.22;95258.78;5046170;28;20045;-75
2022/08/07 02:49:02;;;;;;;9.70;6.90;;;;;;;22.07;63.93;95264.66;5029785;28;20032;-76
2022/08/07 02:51:28;;;;;;;7.40;6.32;;;;;;;22.09;64.00;95250.75;5046257;28;20419;-76
2022/08/07 02:53:53;;;;;;;10.35;7.10;;;;;;;22.24;64.08;95252.84;5045928;28;20017;-76
2022/08/07 02:56:20;;;;;;;8.73;7.88;;;;;;;22.32;63.92;95254.28;5047525;28;20387;-76
2022/08/07 02:58:45;;;;;;;8.32;7.03;;;;;;;22.29;64.41;95241.97;5046013;28;20040;-76
2022/08/07 03:01:11;;;;;;;8.38;7.47;;;;;;;22.38;65.93;95241.50;5046181;28;20048;-76
2022/08/07 03:03:36;;;;;;;10.13;8.18;;;;;;;22.42;65.75;95248.13;5045836;28;20025;-76
2022/08/07 03:06:02;;;;;;;10.68;7.93;;;;;;;22.35;64.59;95251.88;5047047;28;20024;-77
2022/08/07 03:08:28;;;;;;;7.88;6.82;;;;;;;22.34;64.70;95252.13;5029473;28;20150;-77
2022/08/07 03:10:54;;;;;;;7.90;7.10;;;;;;;22.44;65.33;95248.69;5029165;28;20025;-77
2022/08/07 03:13:20;;;;;;;11.13;7.75;;;;;;;22.49;64.46;95248.72;5046020;28;20041;-77
2022/08/07 03:15:45;;;;;;;8.70;7.57;;;;;;;22.56;65.76;95241.16;5046580;28;20066;-77
2022/08/07 03:18:11;;;;;;;8.50;7.20;;;;;;;22.65;65.17;95251.66;5046062;28;20031;-77
2022/08/07 03:20:38;;;;;;;7.93;7.10;;;;;;;22.64;65.37;95244.53;5028636;28;20758;-77
2022/08/07 03:23:03;;;;;;;8.93;6.78;;;;;;;22.70;64.62;95233.38;5045803;28;20031;-77
2022/08/07 03:25:29;;;;;;;8.32;7.45;;;;;;;22.66;64.62;95240.47;5046856;28;20021;-77
2022/08/07 03:27:54;;;;;;;8.88;7.72;;;;;;;22.62;64.56;95236.59;5045400;28;20056;-77
2022/08/07 03:30:20;;;;;;;9.27;8.13;;;;;;;22.49;65.21;95240.53;5029279;28;20080;-77
2022/08/07 03:32:47;;;;;;;8.80;7.90;;;;;;;22.48;65.71;95234.25;5028545;28;20644;-77
2022/08/07 03:35:14;;;;;;;9.02;7.20;;;;;;;22.55;66.11;95233.22;5045712;28;20430;-77
2022/08/07 03:37:42;;;;;;;10.68;9.05;;;;;;;22.53;65.44;95247.16;5044800;28;20028;-76
2022/08/07 03:40:08;;;;;;;10.98;7.93;;;;;;;22.52;65.58;95240.00;5046778;28;20112;-76
2022/08/07 03:42:34;;;;;;;10.27;7.40;;;;;;;22.59;64.32;95248.88;5045083;28;20024;-76
2022/08/07 03:44:59;;;;;;;8.57;7.53;;;;;;;22.66;64.41;95248.66;5046614;28;20399;-76
2022/08/07 03:47:26;;;;;;;8.60;7.70;;;;;;;22.59;64.04;95248.00;5046617;28;20219;-76
2022/08/07 03:49:51;;;;;;;9.57;8.07;;;;;;;22.70;64.09;95257.16;5028331;28;20031;-76
2022/08/07 03:52:17;;;;;;;8.88;7.70;;;;;;;22.40;64.28;95255.75;5046368;28;20029;-76
2022/08/07 03:54:42;;;;;;;10.90;7.70;;;;;;;22.37;63.79;95256.25;5027687;28;20480;-76
2022/08/07 03:57:08;;;;;;;8.93;8.00;;;;;;;22.51;63.88;95251.19;5045068;28;20059;-76
2022/08/07 03:59:33;;;;;;;8.90;7.72;;;;;;;22.58;63.48;95258.13;5044218;28;20028;-76
2022/08/07 04:01:58;;;;;;;8.68;7.22;;;;;;;22.60;63.99;95258.72;5044935;28;20083;-77
2022/08/07 04:04:24;;;;;;;10.40;6.85;;;;;;;22.65;63.46;95257.94;5044890;28;20490;-78
2022/08/07 04:06:50;;;;;;;10.63;7.95;;;;;;;22.60;64.08;95257.91;5044523;28;20032;-78
2022/08/07 04:09:16;;;;;;;9.30;7.00;;;;;;;22.66;64.67;95253.31;5046749;28;20439;-77
2022/08/07 04:11:43;;;;;;;12.48;7.70;;;;;;;22.72;64.65;95260.47;5044204;28;20464;-77
2022/08/07 04:14:08;;;;;;;8.98;7.35;;;;;;;22.78;63.75;95253.94;5028541;28;20141;-77
2022/08/07 04:16:33;;;;;;;9.95;7.82;;;;;;;22.81;63.44;95255.34;5044280;28;20485;-78
2022/08/07 04:18:59;;;;;;;10.35;7.72;;;;;;;22.80;62.88;95260.00;5027928;28;20025;-77
2022/08/07 04:21:25;;;;;;;8.65;7.75;;;;;;;22.84;61.87;95263.84;5044576;28;20032;-77
2022/08/07 04:23:50;;;;;;;9.75;8.35;;;;;;;22.91;62.50;95263.63;5044454;28;20408;-76
2022/08/07 04:26:16;;;;;;;9.18;7.60;;;;;;;22.89;61.70;95267.72;5045939;28;20033;-77
2022/08/07 04:28:41;;;;;;;10.63;8.38;;;;;;;22.95;61.77;95272.16;5044061;28;20021;-76
2022/08/07 04:31:07;;;;;;;12.70;7.65;;;;;;;23.04;61.76;95276.06;5045022;28;20110;-77
2022/08/07 04:33:33;;;;;;;13.55;8.75;;;;;;;22.95;61.51;95277.63;5045789;28;20049;-77
2022/08/07 04:35:59;;;;;;;9.85;8.85;;;;;;;22.67;62.03;95282.28;5044415;28;20039;-77
2022/08/07 04:38:25;;;;;;;10.18;8.48;;;;;;;22.74;61.93;95293.00;5045364;28;20022;-78
2022/08/07 04:40:50;;;;;;;12.10;9.10;;;;;;;22.79;61.96;95288.44;5045649;28;20029;-76
2022/08/07 04:43:16;;;;;;;8.82;8.02;;;;;;;22.66;61.47;95291.56;5045639;28;20025;-76
2022/08/07 04:46:00;;;;;;;8.73;7.75;;;;;;;22.65;60.80;95287.19;5046150;28;20330;-77
2022/08/07 04:48:47;;;;;;;8.65;7.75;;;;;;;22.85;59.78;95278.34;5046273;28;20471;-76
2022/08/07 04:51:29;;;;;;;10.70;8.30;;;;;;;22.96;59.41;95288.31;5044469;28;20029;-77
2022/08/07 04:54:08;;;;;;;9.18;7.90;;;;;;;23.07;60.26;95286.47;5029232;28;20021;-76
2022/08/07 04:56:43;;;;;;;9.23;8.23;;;;;;;22.95;60.58;95285.81;5044571;28;20041;-77
2022/08/07 04:59:21;;;;;;;10.25;8.68;;;;;;;23.01;60.93;95292.16;5027727;28;21081;-76
2022/08/07 05:02:05;;;;;;;8.02;7.22;;;;;;;23.02;58.96;95291.09;5044412;28;20495;-76
2022/08/07 05:04:36;;;;;;;10.57;7.43;;;;;;;23.17;58.18;95302.16;5045876;28;20028;-75
2022/08/07 05:07:14;;;;;;;7.95;7.15;;;;;;;23.15;57.93;95292.56;5047486;28;20428;-76
2022/08/07 05:09:47;;;;;;;27.15;8.50;;;;;;;23.41;57.30;95295.50;5032055;28;20032;-76
2022/08/07 05:12:15;;;;;;;8.48;7.68;;;;;;;23.61;56.32;95303.03;5047731;28;20419;-76
2022/08/07 05:14:43;;;;;;;9.52;7.45;;;;;;;23.86;56.27;95295.25;5048195;28;20116;-76
2022/08/07 05:17:10;;;;;;;9.10;7.80;;;;;;;24.02;56.40;95299.72;5047376;28;20025;-76
2022/08/07 05:19:48;;;;;;;8.93;7.15;;;;;;;24.24;56.54;95301.50;5049468;28;20033;-76
2022/08/07 05:22:15;;;;;;;8.38;7.47;;;;;;;24.45;57.45;95304.31;5048084;28;20036;-77
2022/08/07 05:24:40;;;;;;;8.43;7.60;;;;;;;24.65;57.95;95313.69;5047793;28;20025;-77
2022/08/07 05:27:08;;;;;;;10.10;7.35;;;;;;;24.59;56.38;95306.53;5047613;28;20078;-76
2022/08/07 05:29:35;;;;;;;9.32;7.75;;;;;;;24.80;56.68;95313.72;5030868;28;20480;-77
2022/08/07 05:32:01;;;;;;;11.48;7.20;;;;;;;25.06;55.30;95312.97;5031346;28;20017;-77
2022/08/07 05:34:27;;;;;;;7.60;6.60;;;;;;;24.77;54.43;95307.94;5048441;28;20063;-76
2022/08/07 05:36:52;;;;;;;7.40;6.60;;;;;;;25.10;53.58;95321.47;5047647;28;20029;-76
2022/08/07 05:39:19;;;;;;;8.13;6.63;;;;;;;25.26;53.64;95320.38;5047058;28;20040;-76
2022/08/07 05:41:46;;;;;;;7.50;6.70;;;;;;;25.14;53.02;95317.91;5048830;28;20024;-78
2022/08/07 05:44:11;;;;;;;9.68;7.45;;;;;;;25.45;51.93;95319.00;5048635;28;20115;-78
2022/08/07 05:46:37;;;;;;;9.38;6.43;;;;;;;25.58;52.56;95325.84;5049072;28;20139;-78
2022/08/07 05:49:04;;;;;;;7.32;6.55;;;;;;;25.78;52.59;95320.38;5047690;28;20017;-78
2022/08/07 05:51:30;;;;;;;8.00;6.80;;;;;;;25.91;53.05;95324.47;5048315;28;20021;-77
2022/08/07 05:53:55;;;;;;;10.80;6.80;;;;;;;26.05;51.61;95332.94;5049033;28;20028;-78
2022/08/07 05:56:21;;;;;;;8.10;6.68;;;;;;;26.23;52.08;95329.88;5046701;28;20044;-78
2022/08/07 05:58:46;;;;;;;8.02;6.15;;;;;;;26.37;50.21;95341.94;5048853;28;20103;-76
2022/08/07 06:01:12;;;;;;;9.45;6.38;;;;;;;26.08;50.32;95349.97;5048312;28;20044;-77
2022/08/07 06:03:38;;;;;;;7.40;5.88;;;;;;;26.19;50.17;95339.78;5030774;28;20060;-77
2022/08/07 06:06:04;;;;;;;6.82;5.80;;;;;;;26.29;49.36;95348.78;5048717;28;20043;-77
2022/08/07 06:08:29;;;;;;;8.73;7.13;;;;;;;26.20;48.70;95353.22;5030105;28;20124;-78
2022/08/07 06:10:55;;;;;;;8.35;6.03;;;;;;;26.24;49.83;95354.34;5048965;28;20017;-78
2022/08/07 06:13:20;;;;;;;7.45;6.18;;;;;;;26.35;49.56;95351.56;5047711;28;20043;-76
2022/08/07 06:15:47;;;;;;;7.03;6.22;;;;;;;26.25;48.93;95349.63;5046560;28;20071;-77
2022/08/07 06:18:12;;;;;;;6.97;5.82;;;;;;;26.56;48.62;95348.72;5047729;28;20029;-79
2022/08/07 06:20:38;;;;;;;9.48;5.93;;;;;;;26.85;46.61;95353.53;5047292;28;20032;-77
2022/08/07 06:23:05;;;;;;;9.45;6.05;;;;;;;26.89;47.13;95351.88;5030800;28;20021;-78
2022/08/07 06:25:30;;;;;;;8.02;6.03;;;;;;;26.95;48.52;95353.50;5046761;28;20025;-78
2022/08/07 06:28:06;;;;;;;6.57;5.88;;;;;;;27.14;47.47;95352.84;5047035;28;20043;-78
2022/08/07 06:30:33;;;;;;;8.27;5.85;;;;;;;27.25;47.98;95350.84;5047686;28;20029;-79
2022/08/07 06:32:59;;;;;;;6.85;5.60;;;;;;;27.35;46.36;95353.53;5048195;28;20056;-76
2022/08/07 06:35:24;;;;;;;6.28;5.65;;;;;;;27.40;46.30;95355.41;5047332;28;20083;-77
2022/08/07 06:37:50;;;;;;;6.30;5.35;;;;;;;27.34;46.63;95346.34;5047945;28;20032;-77
2022/08/07 06:40:16;;;;;;;8.98;6.43;;;;;;;27.35;45.33;95345.28;5047889;28;20029;-76
2022/08/07 06:42:41;;;;;;;6.43;5.60;;;;;;;27.26;45.81;95341.50;5047658;28;20028;-76
2022/08/07 06:45:09;;;;;;;6.90;5.82;;;;;;;27.24;47.15;95340.94;5030181;28;20055;-78
2022/08/07 06:47:35;;;;;;;8.63;5.95;;;;;;;27.34;46.99;95348.31;5029277;28;20119;-78
2022/08/07 06:50:00;;;;;;;5.78;5.28;;;;;;;27.49;45.92;95342.66;5047838;28;20025;-76
2022/08/07 06:52:36;;;;;;;7.82;6.35;;;;;;;27.32;46.69;95339.50;5045475;28;20029;-76
2022/08/07 06:55:08;;;;;;;7.80;5.82;;;;;;;27.30;47.14;95338.97;5047630;28;20052;-75
2022/08/07 06:57:34;;;;;;;7.28;6.20;;;;;;;27.46;47.24;95343.25;5047503;28;20108;-77
2022/08/07 06:59:59;;;;;;;6.15;5.53;;;;;;;27.53;46.25;95338.22;5046153;28;20044;-77
2022/08/07 07:02:25;;;;;;;5.85;5.25;;;;;;;27.65;45.37;95348.03;5045997;28;20059;-77
2022/08/07 07:04:50;;;;;;;7.03;5.53;;;;;;;27.69;45.43;95346.41;5029530;28;20021;-77
2022/08/07 07:07:16;;;;;;;9.35;5.80;;;;;;;27.57;45.64;95343.97;5029367;28;20045;-77
2022/08/07 07:09:48;;;;;;;6.13;5.32;;;;;;;27.56;45.97;95347.84;5046731;28;20091;-77
2022/08/07 07:12:13;;;;;;;;;;;;;;;27.68;45.30;95341.97;5048095;28;20471;-76
2022/08/07 07:15:21;;;;;;;6.65;5.50;;;;;;;27.74;46.07;95342.78;5047169;28;20394;-78
2022/08/07 07:17:59;;;;;;;6.15;5.50;;;;;;;27.67;45.04;95345.84;5030308;28;20043;-76
2022/08/07 07:20:32;;;;;;;6.88;5.85;;;;;;;27.71;44.69;95349.66;5045210;28;20778;-77
2022/08/07 07:22:58;;;;;;;6.85;6.15;;;;;;;27.53;45.18;95352.00;5046999;28;20097;-77
2022/08/07 07:25:23;;;;;;;10.60;6.07;;;;;;;27.50;45.14;95344.31;5047484;28;20033;-77
2022/08/07 07:28:11;;;;;;;6.30;5.70;;;;;;;27.52;44.85;95349.53;5044762;28;20319;-78
2022/08/07 07:30:38;;;;;;;5.95;5.35;;;;;;;27.57;45.37;95354.19;5045443;28;20036;-78
2022/08/07 07:33:03;;;;;;;7.38;6.00;;;;;;;27.50;45.62;95351.75;5047119;28;20460;-78
2022/08/07 07:35:29;;;;;;;6.05;5.40;;;;;;;27.46;46.73;95345.16;5045069;28;20028;-77
2022/08/07 07:37:54;;;;;;;7.32;6.20;;;;;;;27.29;45.82;95351.94;5028623;28;20428;-79
2022/08/07 07:40:21;;;;;;;7.75;5.70;;;;;;;27.30;46.18;95349.97;5045080;28;20032;-78
2022/08/07 07:42:49;;;;;;;8.35;5.93;;;;;;;27.42;45.36;95339.44;5045467;28;20451;-77
2022/08/07 07:45:14;;;;;;;8.63;6.25;;;;;;;27.65;45.75;95346.13;5045529;28;20021;-77
2022/08/07 07:47:41;;;;;;;7.60;6.07;;;;;;;27.70;44.76;95347.19;5028396;28;20033;-77
2022/08/07 07:50:06;;;;;;;7.00;5.70;;;;;;;27.91;44.00;95358.84;5045585;28;20814;-77
2022/08/07 07:52:32;;;;;;;7.95;5.75;;;;;;;27.98;42.76;95353.00;5028165;28;20021;-77
2022/08/07 07:54:57;;;;;;;5.80;5.18;;;;;;;28.16;42.83;95345.09;5046465;28;20090;-78
2022/08/07 07:57:23;;;;;;;6.30;5.70;;;;;;;28.38;43.18;95350.13;5044499;28;20037;-77
2022/08/07 07:59:48;;;;;;;8.93;5.65;;;;;;;28.38;42.07;95345.44;5044905;28;20021;-77
2022/08/07 08:02:14;;;;;;;6.63;6.00;;;;;;;28.51;42.27;95348.59;5028487;28;20112;-77
2022/08/07 08:04:40;;;;;;;6.28;5.47;;;;;;;28.06;41.92;95343.28;5044965;28;20028;-77
2022/08/07 08:07:05;;;;;;;8.73;5.57;;;;;;;27.98;43.28;95353.00;5044850;28;20079;-80
2022/08/07 08:09:30;;;;;;;6.80;6.05;;;;;;;28.33;41.42;95347.41;5028440;28;20094;-78
2022/08/07 08:11:56;;;;;;;5.88;5.28;;;;;;;28.26;41.04;95343.06;5044970;28;20036;-78
2022/08/07 08:14:22;;;;;;;8.88;5.57;;;;;;;28.32;41.60;95346.63;5027831;28;20037;-79
2022/08/07 08:16:48;;;;;;;8.77;5.80;;;;;;;28.40;42.12;95347.91;5028505;28;20036;-78
2022/08/07 08:19:15;;;;;;;6.95;5.85;;;;;;;28.43;42.21;95361.09;5044677;28;20102;-78
2022/08/07 08:27:13;;;;;;;8.63;6.68;;;;;;;28.30;41.59;95359.00;5044570;28;20075;-77
2022/08/07 08:29:41;;;;;;;9.13;7.50;;;;;;;28.08;42.28;95368.63;5044771;28;20063;-77
2022/08/07 08:32:09;;;;;;;7.57;6.88;;;;;;;28.04;41.88;95362.88;5045321;28;20075;-76
2022/08/07 08:34:34;;;;;;;9.43;6.95;;;;;;;28.19;41.65;95356.38;5044852;28;20033;-77
2022/08/07 08:37:01;;;;;;;8.55;7.07;;;;;;;28.16;41.41;95358.88;5044237;28;20446;-78
2022/08/07 08:39:27;;;;;;;9.13;6.80;;;;;;;28.20;42.73;95354.44;5030366;28;20025;-78
2022/08/07 08:41:57;;;;;;;10.50;7.35;;;;;;;28.25;42.44;95348.84;5048819;28;20025;-78
2022/08/07 08:44:27;;;;;;;8.80;7.90;;;;;;;28.11;42.60;95362.53;5032007;28;20037;-78
2022/08/07 08:47:01;;;;;;;10.10;8.38;;;;;;;28.39;42.26;95360.03;5049929;28;20025;-78
2022/08/07 08:49:32;;;;;;;8.73;7.93;;;;;;;28.45;41.75;95358.03;5048008;28;20036;-80
2022/08/07 08:52:10;;;;;;;9.52;8.52;;;;;;;28.65;41.20;95356.16;5032170;28;20159;-80
2022/08/07 08:54:42;;;;;;;11.55;8.32;;;;;;;28.84;40.00;95364.47;5049870;28;20044;-77
2022/08/07 08:57:12;;;;;;;8.85;8.05;;;;;;;28.84;39.88;95364.47;5047801;28;20036;-78
2022/08/07 08:59:49;;;;;;;9.38;7.68;;;;;;;28.40;41.21;95358.94;5048335;28;20296;-77
2022/08/07 09:02:23;;;;;;;8.75;7.75;;;;;;;28.41;41.37;95359.75;5049178;28;20057;-78
2022/08/07 09:04:54;;;;;;;8.43;7.63;;;;;;;28.42;40.90;95350.38;5049661;28;20423;-77
2022/08/07 09:07:42;;;;;;;8.90;8.00;;;;;;;28.22;41.93;95357.72;5047354;28;20052;-78
2022/08/07 09:10:30;;;;;;;10.80;7.85;;;;;;;28.44;40.42;95354.47;5048864;28;20037;-76
2022/08/07 09:13:08;;;;;;;11.77;7.65;;;;;;;28.51;40.86;95345.84;5048487;28;20032;-77
2022/08/07 09:15:41;;;;;;;10.15;7.50;;;;;;;28.67;40.96;95345.63;5047654;28;20090;-77
2022/08/07 09:18:27;;;;;;;8.45;7.60;;;;;;;28.69;41.31;95349.75;5049369;28;20055;-77
2022/08/07 09:21:17;;;;;;;8.23;7.43;;;;;;;28.70;41.20;95351.38;5048090;28;20034;-77
2022/08/07 09:24:11;;;;;;;9.45;6.80;;;;;;;28.60;41.46;95348.78;5048710;28;20037;-78
2022/08/07 09:26:45;;;;;;;8.10;7.20;;;;;;;28.70;40.51;95345.88;5034268;28;20078;-78
2022/08/07 09:29:22;;;;;;;8.85;6.80;;;;;;;28.55;41.04;95340.56;5047461;28;20048;-78
2022/08/07 09:32:25;;;;;;;9.25;7.28;;;;;;;28.57;40.74;95335.53;5047970;28;20028;-77
2022/08/07 09:34:54;;;;;;;8.65;6.88;;;;;;;28.72;41.01;95340.06;5049181;28;20472;-77
2022/08/07 09:37:51;;;;;;;6.93;6.22;;;;;;;28.60;39.87;95324.75;5048410;28;20035;-77
2022/08/07 09:40:48;;;;;;;8.00;5.93;;;;;;;28.69;38.99;95319.41;5047719;28;20055;-78
2022/08/07 09:43:34;;;;;;;8.05;5.50;;;;;;;28.46;38.84;95324.66;5048830;28;20048;-77
2022/08/07 09:46:27;;;;;;;7.25;5.63;;;;;;;28.45;38.56;95325.78;5048471;28;20033;-77
2022/08/07 09:49:20;;;;;;;8.35;5.95;;;;;;;28.48;38.45;95322.44;5048783;28;20434;-77
2022/08/07 09:52:25;;;;;;;6.63;5.53;;;;;;;28.62;38.25;95325.28;5047934;28;20086;-76
2022/08/07 09:54:57;;;;;;;7.50;5.65;;;;;;;28.67;38.38;95321.63;5047361;28;20032;-77
2022/08/07 09:58:00;;;;;;;6.88;5.38;;;;;;;28.68;38.82;95311.44;5047929;28;20357;-78
2022/08/07 10:00:31;;;;;;;;;;;;;;;28.81;40.19;95318.94;5048692;28;20136;-77
2022/08/07 10:02:59;;;;;;;8.07;5.68;;;;;;;28.96;39.46;95308.84;5046533;28;19913;-78
2022/08/07 10:05:47;;;;;;;6.70;5.22;;;;;;;29.05;39.07;95306.25;5048252;28;20086;-77
2022/08/07 10:08:31;;;;;;;7.38;5.57;;;;;;;28.95;38.53;95313.53;5048479;28;20037;-78
2022/08/07 10:11:15;;;;;;;6.40;5.80;;;;;;;28.91;39.00;95312.47;5048005;28;20351;-78
2022/08/07 10:13:44;;;;;;;7.13;5.70;;;;;;;28.72;40.10;95302.25;5047951;28;20057;-79
2022/08/07 10:16:31;;;;;;;8.10;5.85;;;;;;;29.14;40.32;95298.91;5046679;28;20519;-78
2022/08/07 10:18:57;;;;;;;7.88;6.28;;;;;;;29.23;39.73;95291.59;5046768;28;20028;-78
2022/08/07 10:21:41;;;;;;;6.97;5.57;;;;;;;29.26;39.47;95301.19;5047864;28;20365;-78
2022/08/07 10:24:39;;;;;;;6.30;5.70;;;;;;;29.40;39.63;95314.25;5047989;28;20115;-78
2022/08/07 10:27:33;;;;;;;6.28;5.47;;;;;;;29.43;38.53;95314.47;5046679;28;20036;-77
2022/08/07 10:30:06;;;;;;;8.35;5.38;;;;;;;29.42;38.19;95309.25;5047797;28;20094;-79
2022/08/07 10:33:10;;;;;;;6.50;5.70;;;;;;;29.29;37.87;95319.13;5046053;28;20025;-78
2022/08/07 10:35:47;;;;;;;9.30;5.95;;;;;;;29.38;37.89;95322.84;5029362;28;20539;-77
2022/08/07 10:38:50;;;;;;;8.00;5.78;;;;;;;29.30;37.69;95304.19;5047732;28;20167;-79
2022/08/07 10:41:32;;;;;;;13.35;5.30;;;;;;;29.39;35.75;95318.16;5035014;28;20048;-77
2022/08/07 10:44:24;;;;;;;6.18;4.50;;;;;;;29.22;35.68;95309.28;5047743;28;20037;-77
2022/08/07 10:46:54;;;;;;;7.03;4.17;;;;;;;29.36;34.89;95314.84;5045690;28;20052;-77
2022/08/07 10:49:39;;;;;;;5.82;4.30;;;;;;;29.34;34.89;95303.28;5047723;28;20036;-79
2022/08/07 10:52:08;;;;;;;5.15;4.30;;;;;;;29.12;35.25;95320.47;5047500;28;20025;-78
2022/08/07 10:54:39;;;;;;;6.53;4.20;;;;;;;29.27;36.02;95313.91;5045117;28;20523;-78
2022/08/07 10:57:24;;;;;;;6.13;4.78;;;;;;;29.27;36.05;95302.03;5047199;28;20041;-77
2022/08/07 11:00:01;;;;;;;6.07;4.55;;;;;;;29.23;36.61;95297.09;5045441;28;20033;-77
2022/08/07 11:02:30;;;;;;;6.22;5.60;;;;;;;29.22;38.19;95309.28;5045731;28;20393;-78
2022/08/07 11:05:00;;;;;;;6.20;5.47;;;;;;;29.34;38.31;95299.72;5047160;28;20025;-78
2022/08/07 11:08:12;;;;;;;6.97;5.57;;;;;;;29.43;38.59;95300.66;5046193;28;20057;-77
2022/08/07 11:10:50;;;;;;;6.93;5.88;;;;;;;29.45;38.58;95309.47;5042489;28;20155;-78
2022/08/07 11:13:55;;;;;;;7.38;5.50;;;;;;;29.51;38.20;95290.84;5047178;28;20518;-78
2022/08/07 11:16:33;;;;;;;5.85;5.25;;;;;;;29.60;37.05;95288.22;5046205;28;20036;-78
2022/08/07 11:19:37;;;;;;;5.85;5.18;;;;;;;29.72;37.22;95285.81;5045178;28;20512;-78
2022/08/07 11:22:26;;;;;;;5.97;5.40;;;;;;;29.81;36.64;95279.59;5044759;28;20045;-77
2022/08/07 11:25:00;;;;;;;7.57;5.50;;;;;;;29.71;38.10;95270.34;5045921;28;20045;-78
2022/08/07 11:27:44;;;;;;;6.47;5.78;;;;;;;29.44;38.24;95285.72;5045338;28;20443;-77
2022/08/07 11:30:23;;;;;;;7.03;5.82;;;;;;;29.46;38.67;95280.72;5046958;28;20028;-80
2022/08/07 11:33:01;;;;;;;7.65;5.72;;;;;;;29.35;38.72;95288.38;5045213;28;20074;-77
2022/08/07 11:35:49;;;;;;;9.60;6.10;;;;;;;29.43;38.93;95289.63;5046826;28;20025;-76
2022/08/07 11:38:48;;;;;;;9.43;6.03;;;;;;;29.37;38.37;95296.34;5045118;28;20504;-77
2022/08/07 11:41:15;;;;;;;6.78;5.22;;;;;;;29.26;37.57;95294.88;5031479;28;20483;-78
2022/08/07 11:44:08;;;;;;;6.20;5.18;;;;;;;29.18;37.93;95299.94;5045472;28;20592;-78
2022/08/07 11:46:48;;;;;;;6.10;5.50;;;;;;;29.02;38.99;95304.09;5025022;28;20053;-78
2022/08/07 11:49:28;;;;;;;6.38;5.72;;;;;;;28.79;38.94;95303.81;5046444;28;20021;-78
2022/08/07 11:52:14;;;;;;;6.47;5.53;;;;;;;28.62;38.49;95292.19;5046536;28;20515;-77
2022/08/07 11:55:04;;;;;;;6.63;6.00;;;;;;;28.63;39.07;95296.56;5046032;28;20036;-78